Time;durP1;ratioP1;P1;durP2;ratioP2;P2;SDS_P1;SDS_P2;PMS_P1;PMS_P2;Temp;Humidity;BMP_temperature;BMP_pressure;BME280_temperature;BME280_humidity;BME280_pressure;Samples;Min_cycle;Max_cycle;Signal;HPM_P1;HPM_P2
2021/10/14 00:01:26;;;;;;;30.83;16.02;;;;;;;;;;4971816;28;20491;-74
2021/10/14 00:03:52;;;;;;;30.35;15.05;;;;;;;;;;4990667;28;20030;-74
2021/10/14 00:06:18;;;;;;;28.90;15.45;;;;;;;;;;4993177;28;20037;-74
2021/10/14 00:08:43;;;;;;;29.88;14.02;;;;;;;;;;4990601;28;20034;-73
2021/10/14 00:11:09;;;;;;;25.95;14.27;;;;;;;;;;4988462;28;20037;-73
2021/10/14 00:13:35;;;;;;;25.38;14.30;;;;;;;;;;4991723;28;20026;-73
2021/10/14 00:16:01;;;;;;;27.48;16.15;;;;;;;;;;4994310;28;20034;-73
2021/10/14 00:18:27;;;;;;;30.48;14.80;;;;;;;;;;4996154;28;20084;-73
2021/10/14 00:20:53;;;;;;;26.33;14.48;;;;;;;;;;4990324;28;20503;-73
2021/10/14 00:23:19;;;;;;;26.73;14.05;;;;;;;;;;4998784;28;20037;-73
2021/10/14 00:25:45;;;;;;;29.38;14.05;;;;;;;;;;4996676;28;20046;-73
2021/10/14 00:28:11;;;;;;;30.10;15.27;;;;;;;;;;4991633;28;20019;-74
2021/10/14 00:30:37;;;;;;;32.00;16.23;;;;;;;;;;5000154;28;20026;-74
2021/10/14 00:33:03;;;;;;;33.85;15.68;;;;;;;;;;4994105;28;20056;-73
2021/10/14 00:35:29;;;;;;;30.50;15.00;;;;;;;;;;4997805;28;20033;-73
2021/10/14 00:37:55;;;;;;;31.00;14.82;;;;;;;;;;4994893;23;20038;-75
2021/10/14 00:40:22;;;;;;;30.48;15.23;;;;;;;;;;4971480;28;20190;-75
2021/10/14 00:42:48;;;;;;;36.58;15.82;;;;;;;;;;4968951;28;20046;-75
2021/10/14 00:45:15;;;;;;;32.80;16.98;;;;;;;;;;4971609;28;20030;-75
2021/10/14 00:47:41;;;;;;;30.83;15.35;;;;;;;;;;4972762;28;20422;-75
2021/10/14 00:50:07;;;;;;;34.42;16.80;;;;;;;;;;4974152;28;20035;-75
2021/10/14 00:52:34;;;;;;;35.53;16.73;;;;;;;;;;4974188;28;20038;-75
2021/10/14 00:55:00;;;;;;;35.63;16.45;;;;;;;;;;4972925;28;20030;-75
2021/10/14 00:57:27;;;;;;;34.20;17.15;;;;;;;;;;4972822;28;20400;-75
2021/10/14 00:59:53;;;;;;;36.67;17.95;;;;;;;;;;4981674;28;20018;-75
2021/10/14 01:02:19;;;;;;;35.85;16.50;;;;;;;;;;4972948;28;20046;-76
2021/10/14 01:04:45;;;;;;;40.53;17.70;;;;;;;;;;4978609;28;20034;-75
2021/10/14 01:07:11;;;;;;;39.05;17.25;;;;;;;;;;4975586;28;20262;-75
2021/10/14 01:09:39;;;;;;;39.10;17.60;;;;;;;;;;4977775;28;20033;-75
2021/10/14 01:12:05;;;;;;;32.38;16.02;;;;;;;;;;4973017;28;20046;-75
2021/10/14 01:14:31;;;;;;;40.08;17.95;;;;;;;;;;4973786;28;20026;-75
2021/10/14 01:16:58;;;;;;;40.00;16.92;;;;;;;;;;4973888;28;20082;-75
2021/10/14 01:19:24;;;;;;;36.50;16.95;;;;;;;;;;4973291;28;20052;-75
2021/10/14 01:21:50;;;;;;;36.85;17.90;;;;;;;;;;4966191;28;20031;-76
2021/10/14 01:24:16;;;;;;;37.55;16.08;;;;;;;;;;4973158;28;20078;-74
2021/10/14 01:26:42;;;;;;;34.50;15.32;;;;;;;;;;4974091;28;20027;-76
2021/10/14 01:29:08;;;;;;;36.38;16.30;;;;;;;;;;4974376;28;20411;-76
2021/10/14 01:31:34;;;;;;;35.70;15.63;;;;;;;;;;4973544;28;20081;-75
2021/10/14 01:34:00;;;;;;;38.25;17.65;;;;;;;;;;4973803;28;20106;-75
2021/10/14 01:36:26;;;;;;;39.58;16.35;;;;;;;;;;4973738;28;20026;-75
2021/10/14 01:38:52;;;;;;;35.40;16.92;;;;;;;;;;4972202;28;20186;-75
2021/10/14 01:41:18;;;;;;;42.28;17.70;;;;;;;;;;4971873;28;20042;-75
2021/10/14 01:43:44;;;;;;;37.78;17.85;;;;;;;;;;4972338;28;20030;-75
2021/10/14 01:46:10;;;;;;;37.22;18.00;;;;;;;;;;4971882;28;20042;-75
2021/10/14 01:48:37;;;;;;;42.42;17.60;;;;;;;;;;4973026;28;20034;-75
2021/10/14 01:51:03;;;;;;;38.90;17.33;;;;;;;;;;4972995;28;20031;-75
2021/10/14 01:53:29;;;;;;;44.25;19.17;;;;;;;;;;4972460;28;20027;-76
2021/10/14 01:55:55;;;;;;;39.42;16.63;;;;;;;;;;4965945;28;20033;-75
2021/10/14 01:58:21;;;;;;;35.75;16.75;;;;;;;;;;4971782;28;20468;-76
2021/10/14 02:00:51;;;;;;;40.90;18.27;;;;;;;;;;4972080;28;20030;-75
2021/10/14 02:03:17;;;;;;;;;;;;;;;;;;4973261;28;20029;-75
2021/10/14 02:05:43;;;;;;;31.65;15.05;;;;;;;;;;4973485;28;20321;-75
2021/10/14 02:08:09;;;;;;;37.25;17.27;;;;;;;;;;4971174;28;20025;-75
2021/10/14 02:10:35;;;;;;;37.15;17.48;;;;;;;;;;4971938;28;20467;-75
2021/10/14 02:13:02;;;;;;;39.42;17.17;;;;;;;;;;4974798;28;20035;-75
2021/10/14 02:15:28;;;;;;;42.47;17.95;;;;;;;;;;4973207;28;20033;-76
2021/10/14 02:17:54;;;;;;;42.33;18.13;;;;;;;;;;4971401;28;20031;-76
2021/10/14 02:20:20;;;;;;;44.17;18.30;;;;;;;;;;4969081;28;20026;-75
2021/10/14 02:22:46;;;;;;;43.10;18.25;;;;;;;;;;4971590;28;20082;-75
2021/10/14 02:25:13;;;;;;;45.35;18.38;;;;;;;;;;4971486;28;20391;-75
2021/10/14 02:27:39;;;;;;;50.20;19.42;;;;;;;;;;4971644;28;20023;-75
2021/10/14 02:30:07;;;;;;;46.50;20.40;;;;;;;;;;4972717;28;20049;-75
2021/10/14 02:32:33;;;;;;;52.35;21.73;;;;;;;;;;4971374;28;20151;-75
2021/10/14 02:34:59;;;;;;;57.30;21.33;;;;;;;;;;4972855;28;20043;-76
2021/10/14 02:37:25;;;;;;;52.58;21.48;;;;;;;;;;4978623;28;20448;-75
2021/10/14 02:39:51;;;;;;;58.20;22.98;;;;;;;;;;4972484;28;20081;-75
2021/10/14 02:42:17;;;;;;;50.80;20.58;;;;;;;;;;4972155;28;20026;-75
2021/10/14 02:44:43;;;;;;;45.25;19.88;;;;;;;;;;4977057;28;20037;-75
2021/10/14 02:47:10;;;;;;;50.08;20.42;;;;;;;;;;4973890;28;20030;-75
2021/10/14 02:49:36;;;;;;;47.38;21.08;;;;;;;;;;4970348;28;20031;-75
2021/10/14 02:52:02;;;;;;;57.47;22.25;;;;;;;;;;4972278;28;20472;-75
2021/10/14 02:54:28;;;;;;;53.03;23.10;;;;;;;;;;4971002;28;20026;-76
2021/10/14 02:56:54;;;;;;;55.20;21.00;;;;;;;;;;4968736;28;20035;-75
2021/10/14 02:59:19;;;;;;;52.05;21.40;;;;;;;;;;4970522;28;20023;-76
2021/10/14 03:01:45;;;;;;;49.30;20.63;;;;;;;;;;4972192;28;20031;-76
2021/10/14 03:04:11;;;;;;;49.88;20.88;;;;;;;;;;4972259;28;20445;-75
2021/10/14 03:06:37;;;;;;;46.67;20.02;;;;;;;;;;4970334;28;20525;-75
2021/10/14 03:09:03;;;;;;;51.25;20.90;;;;;;;;;;4971939;28;20115;-75
2021/10/14 03:11:29;;;;;;;46.90;19.30;;;;;;;;;;4971491;28;20019;-75
2021/10/14 03:13:55;;;;;;;45.85;19.75;;;;;;;;;;4969558;28;20550;-74
2021/10/14 03:16:21;;;;;;;54.72;20.52;;;;;;;;;;4973141;28;20063;-75
2021/10/14 03:18:48;;;;;;;49.67;19.50;;;;;;;;;;4972708;28;20034;-75
2021/10/14 03:21:15;;;;;;;47.58;19.85;;;;;;;;;;4962694;28;20038;-75
2021/10/14 03:23:41;;;;;;;52.45;21.65;;;;;;;;;;4969806;28;20054;-75
2021/10/14 03:26:06;;;;;;;46.25;19.77;;;;;;;;;;4971837;28;20499;-75
2021/10/14 03:28:32;;;;;;;42.92;19.73;;;;;;;;;;4969694;28;20034;-75
2021/10/14 03:30:59;;;;;;;45.22;18.40;;;;;;;;;;4970389;28;20031;-76
2021/10/14 03:33:25;;;;;;;53.30;20.17;;;;;;;;;;4970934;28;20015;-75
2021/10/14 03:35:51;;;;;;;44.65;17.85;;;;;;;;;;4969927;28;20031;-75
2021/10/14 03:38:17;;;;;;;49.13;19.55;;;;;;;;;;4971615;28;20027;-75
2021/10/14 03:40:43;;;;;;;41.40;18.15;;;;;;;;;;4969294;28;20495;-74
2021/10/14 03:43:09;;;;;;;46.45;18.38;;;;;;;;;;4970061;28;20022;-75
2021/10/14 03:45:35;;;;;;;42.38;18.20;;;;;;;;;;4971148;28;20427;-75
2021/10/14 03:48:01;;;;;;;36.55;15.20;;;;;;;;;;4970870;28;20117;-75
2021/10/14 03:50:27;;;;;;;46.90;17.00;;;;;;;;;;4971117;28;20059;-75
2021/10/14 03:52:54;;;;;;;34.33;14.43;;;;;;;;;;4971333;28;20031;-75
2021/10/14 03:55:20;;;;;;;33.67;16.63;;;;;;;;;;4969620;28;20031;-76
2021/10/14 03:57:46;;;;;;;32.90;14.82;;;;;;;;;;4970428;28;20026;-76
2021/10/14 04:00:12;;;;;;;31.55;13.45;;;;;;;;;;4969140;28;20472;-75
2021/10/14 04:02:38;;;;;;;24.95;11.85;;;;;;;;;;4971332;28;20030;-75
2021/10/14 04:05:04;;;;;;;24.58;11.85;;;;;;;;;;4969329;28;20030;-76
2021/10/14 04:07:30;;;;;;;26.90;10.50;;;;;;;;;;4970741;28;20093;-75
2021/10/14 04:09:56;;;;;;;23.52;10.40;;;;;;;;;;4970915;28;20030;-75
2021/10/14 04:12:22;;;;;;;27.40;9.63;;;;;;;;;;4969754;28;20105;-75
2021/10/14 04:14:48;;;;;;;20.88;9.63;;;;;;;;;;4969538;28;20034;-76
2021/10/14 04:17:14;;;;;;;23.85;9.82;;;;;;;;;;4971126;28;20027;-75
2021/10/14 04:19:40;;;;;;;20.15;9.50;;;;;;;;;;4971493;28;20078;-75
2021/10/14 04:22:06;;;;;;;16.95;7.90;;;;;;;;;;4969439;28;20086;-76
2021/10/14 04:24:33;;;;;;;16.63;7.30;;;;;;;;;;4971031;28;20026;-75
2021/10/14 04:26:59;;;;;;;21.13;8.23;;;;;;;;;;4971945;28;20023;-76
2021/10/14 04:29:25;;;;;;;20.08;7.80;;;;;;;;;;4971266;28;20391;-75
2021/10/14 04:31:52;;;;;;;16.88;7.47;;;;;;;;;;4977129;28;20484;-75
2021/10/14 04:34:18;;;;;;;18.50;7.30;;;;;;;;;;4970556;28;20029;-75
2021/10/14 04:36:44;;;;;;;18.98;7.57;;;;;;;;;;4969848;28;20085;-75
2021/10/14 04:39:10;;;;;;;16.83;7.50;;;;;;;;;;4970379;28;20387;-75
2021/10/14 04:41:36;;;;;;;24.40;8.30;;;;;;;;;;4970215;28;20019;-74
2021/10/14 04:44:03;;;;;;;19.40;7.50;;;;;;;;;;4969148;28;20039;-75
2021/10/14 04:46:29;;;;;;;17.60;7.03;;;;;;;;;;4971262;28;20169;-75
2021/10/14 04:48:55;;;;;;;15.95;7.10;;;;;;;;;;4969169;28;20118;-75
2021/10/14 04:51:21;;;;;;;17.60;7.55;;;;;;;;;;4971931;28;20124;-75
2021/10/14 04:53:47;;;;;;;19.27;7.82;;;;;;;;;;4969781;28;20031;-75
2021/10/14 04:56:13;;;;;;;17.98;8.57;;;;;;;;;;4969310;28;20033;-75
2021/10/14 04:58:38;;;;;;;15.75;7.53;;;;;;;;;;4969656;28;20019;-75
2021/10/14 05:01:04;;;;;;;19.05;8.80;;;;;;;;;;4970325;28;20042;-75
2021/10/14 05:03:30;;;;;;;15.70;7.78;;;;;;;;;;4971039;28;20023;-75
2021/10/14 05:05:56;;;;;;;17.88;7.13;;;;;;;;;;4970638;28;20031;-75
2021/10/14 05:08:22;;;;;;;15.30;7.35;;;;;;;;;;4969326;28;20078;-75
2021/10/14 05:10:48;;;;;;;14.65;7.15;;;;;;;;;;4970185;28;20034;-76
2021/10/14 05:13:14;;;;;;;16.60;7.97;;;;;;;;;;4970409;28;20031;-76
2021/10/14 05:15:40;;;;;;;14.50;5.90;;;;;;;;;;4969539;28;20026;-75
2021/10/14 05:18:06;;;;;;;21.45;8.02;;;;;;;;;;4971502;28;20034;-75
2021/10/14 05:20:32;;;;;;;16.85;6.57;;;;;;;;;;4977847;28;20029;-75
2021/10/14 05:22:58;;;;;;;18.27;7.65;;;;;;;;;;4973656;28;20035;-75
2021/10/14 05:25:24;;;;;;;19.17;8.35;;;;;;;;;;4972220;28;20117;-75
2021/10/14 05:27:50;;;;;;;17.10;8.07;;;;;;;;;;4973801;28;20114;-75
2021/10/14 05:30:17;;;;;;;18.33;7.55;;;;;;;;;;4969256;28;20552;-76
2021/10/14 05:32:43;;;;;;;16.38;7.72;;;;;;;;;;4973374;28;20023;-75
2021/10/14 05:35:09;;;;;;;22.85;8.40;;;;;;;;;;4972072;28;20526;-75
2021/10/14 05:37:35;;;;;;;17.83;7.82;;;;;;;;;;4972420;28;20665;-75
2021/10/14 05:40:01;;;;;;;15.07;6.35;;;;;;;;;;4969472;28;20031;-75
2021/10/14 05:42:27;;;;;;;14.90;6.97;;;;;;;;;;4969043;28;20150;-75
2021/10/14 05:44:53;;;;;;;17.40;6.90;;;;;;;;;;4972496;28;20114;-75
2021/10/14 05:47:19;;;;;;;13.65;6.25;;;;;;;;;;4969923;28;20771;-75
2021/10/14 05:49:45;;;;;;;12.73;6.45;;;;;;;;;;4971511;28;20508;-75
2021/10/14 05:52:11;;;;;;;18.02;5.97;;;;;;;;;;4973430;28;20062;-75
2021/10/14 05:54:37;;;;;;;14.00;5.70;;;;;;;;;;4973657;28;20031;-75
2021/10/14 05:57:03;;;;;;;10.63;5.47;;;;;;;;;;4970932;28;20173;-74
2021/10/14 05:59:29;;;;;;;10.60;5.03;;;;;;;;;;4972773;28;20026;-75
2021/10/14 06:01:55;;;;;;;10.20;5.22;;;;;;;;;;4970935;28;20374;-75
2021/10/14 06:04:21;;;;;;;14.38;5.65;;;;;;;;;;4968382;28;20114;-75
2021/10/14 06:06:47;;;;;;;10.32;4.68;;;;;;;;;;4970670;28;20131;-76
2021/10/14 06:09:13;;;;;;;10.57;5.47;;;;;;;;;;4972199;28;20065;-75
2021/10/14 06:11:39;;;;;;;12.85;4.80;;;;;;;;;;4972672;28;20117;-75
2021/10/14 06:14:05;;;;;;;12.02;4.78;;;;;;;;;;4973099;28;20062;-75
2021/10/14 06:16:31;;;;;;;12.18;4.60;;;;;;;;;;4969510;28;20051;-74
2021/10/14 06:18:57;;;;;;;10.55;5.60;;;;;;;;;;4969821;28;20467;-75
2021/10/14 06:21:23;;;;;;;11.05;5.00;;;;;;;;;;4970510;28;20031;-75
2021/10/14 06:23:49;;;;;;;16.10;5.20;;;;;;;;;;4969176;28;20038;-75
2021/10/14 06:26:15;;;;;;;10.52;4.82;;;;;;;;;;4961845;28;20033;-74
2021/10/14 06:28:41;;;;;;;10.68;4.35;;;;;;;;;;4969177;28;20098;-75
2021/10/14 06:31:07;;;;;;;9.27;3.88;;;;;;;;;;4972876;28;20099;-74
2021/10/14 06:33:33;;;;;;;10.70;4.57;;;;;;;;;;4971693;28;20583;-74
2021/10/14 06:35:58;;;;;;;6.43;3.30;;;;;;;;;;4972324;28;20101;-74
2021/10/14 06:38:25;;;;;;;9.70;4.93;;;;;;;;;;4996628;23;22400;-71
2021/10/14 06:40:51;;;;;;;10.38;3.95;;;;;;;;;;4985708;28;20073;-72
2021/10/14 06:43:17;;;;;;;12.43;3.97;;;;;;;;;;4986857;28;20499;-72
2021/10/14 06:45:43;;;;;;;10.25;4.95;;;;;;;;;;4977875;28;20023;-72
2021/10/14 06:48:09;;;;;;;8.27;4.72;;;;;;;;;;4985848;28;20097;-72
2021/10/14 06:50:35;;;;;;;16.23;4.93;;;;;;;;;;4969002;28;20544;-71
2021/10/14 06:53:03;;;;;;;8.43;4.75;;;;;;;;;;4971456;28;20071;-71
2021/10/14 06:55:29;;;;;;;10.23;4.63;;;;;;;;;;4972207;28;20135;-71
2021/10/14 06:57:55;;;;;;;11.73;4.13;;;;;;;;;;4972514;28;20151;-71
2021/10/14 07:00:24;;;;;;;9.48;4.60;;;;;;;;;;4968477;28;20122;-72
2021/10/14 07:02:50;;;;;;;11.05;4.32;;;;;;;;;;4968496;28;20027;-72
2021/10/14 07:05:16;;;;;;;7.63;4.72;;;;;;;;;;4978238;28;20030;-71
2021/10/14 07:07:42;;;;;;;10.18;4.32;;;;;;;;;;4973076;28;20550;-71
2021/10/14 07:10:09;;;;;;;12.43;4.57;;;;;;;;;;4973246;28;20105;-72
2021/10/14 07:12:37;;;;;;;10.57;4.55;;;;;;;;;;4972492;28;20030;-72
2021/10/14 07:15:03;;;;;;;13.55;4.40;;;;;;;;;;4971483;28;20037;-72
2021/10/14 07:17:29;;;;;;;11.93;4.65;;;;;;;;;;4969996;28;20030;-71
2021/10/14 07:19:55;;;;;;;11.48;4.63;;;;;;;;;;4981850;28;20023;-72
2021/10/14 07:22:21;;;;;;;12.98;5.90;;;;;;;;;;4971042;28;20037;-71
2021/10/14 07:24:47;;;;;;;9.48;4.70;;;;;;;;;;4971220;28;20582;-72
2021/10/14 07:27:13;;;;;;;16.35;5.35;;;;;;;;;;4970842;28;20038;-71
2021/10/14 07:29:39;;;;;;;13.68;4.97;;;;;;;;;;4971046;28;20108;-72
2021/10/14 07:32:06;;;;;;;9.48;5.20;;;;;;;;;;4969363;28;20054;-72
2021/10/14 07:34:32;;;;;;;9.73;4.53;;;;;;;;;;4969596;28;20500;-71
2021/10/14 07:36:58;;;;;;;12.95;5.53;;;;;;;;;;4970165;28;20476;-71
2021/10/14 07:39:24;;;;;;;8.90;5.13;;;;;;;;;;4983091;28;20045;-71
2021/10/14 07:41:50;;;;;;;12.20;5.53;;;;;;;;;;4989904;28;20097;-71
2021/10/14 07:44:17;;;;;;;8.60;5.53;;;;;;;;;;4970180;28;20551;-73
2021/10/14 07:46:44;;;;;;;9.88;5.35;;;;;;;;;;4988552;28;20029;-74
2021/10/14 07:49:10;;;;;;;18.42;6.38;;;;;;;;;;4988156;28;20439;-74
2021/10/14 07:51:36;;;;;;;11.23;6.13;;;;;;;;;;4978279;28;20037;-74
2021/10/14 07:54:03;;;;;;;11.13;5.65;;;;;;;;;;4978525;28;20089;-74
2021/10/14 07:56:29;;;;;;;18.55;6.53;;;;;;;;;;4990254;28;20030;-74
2021/10/14 07:58:55;;;;;;;13.60;6.00;;;;;;;;;;4973152;28;20487;-75
2021/10/14 08:01:21;;;;;;;10.60;5.28;;;;;;;;;;4988633;28;20081;-75
2021/10/14 08:03:47;;;;;;;11.25;5.55;;;;;;;;;;4971850;28;20030;-75
2021/10/14 08:06:13;;;;;;;16.08;7.00;;;;;;;;;;4972655;28;20057;-75
2021/10/14 08:08:39;;;;;;;11.48;5.45;;;;;;;;;;4990443;28;20050;-75
2021/10/14 08:11:05;;;;;;;14.10;7.18;;;;;;;;;;4979943;28;20061;-75
2021/10/14 08:13:31;;;;;;;17.30;7.32;;;;;;;;;;4990622;28;20035;-75
2021/10/14 08:15:57;;;;;;;15.88;8.20;;;;;;;;;;4983588;28;20081;-75
2021/10/14 08:18:23;;;;;;;14.18;7.50;;;;;;;;;;4981260;28;20022;-75
2021/10/14 08:20:50;;;;;;;20.48;7.97;;;;;;;;;;4987065;28;20030;-72
2021/10/14 08:23:17;;;;;;;12.63;6.95;;;;;;;;;;4972901;28;20145;-72
2021/10/14 08:25:43;;;;;;;16.80;7.63;;;;;;;;;;4994136;28;20042;-72
2021/10/14 08:28:09;;;;;;;12.60;6.25;;;;;;;;;;4988923;28;20611;-72
2021/10/14 08:30:35;;;;;;;12.68;6.70;;;;;;;;;;4989340;28;20138;-72
2021/10/14 08:33:01;;;;;;;14.40;6.93;;;;;;;;;;4973031;28;20418;-72
2021/10/14 08:35:36;;;;;;;17.23;6.95;;;;;;;;;;4971205;28;20031;-72
2021/10/14 08:38:03;;;;;;;13.25;6.72;;;;;;;;;;4989075;28;20076;-72
2021/10/14 08:40:29;;;;;;;9.85;5.35;;;;;;;;;;4988296;28;20686;-73
2021/10/14 08:42:59;;;;;;;12.00;5.07;;;;;;;;;;4981054;28;20031;-72
2021/10/14 08:45:25;;;;;;;;;;;;;;;;;;4989504;28;20576;-73
2021/10/14 08:47:51;;;;;;;7.45;3.92;;;;;;;;;;4989017;28;20017;-72
2021/10/14 08:50:18;;;;;;;8.68;3.55;;;;;;;;;;4971912;28;20033;-72
2021/10/14 08:52:44;;;;;;;6.93;3.35;;;;;;;;;;4977774;28;20030;-72
2021/10/14 08:55:10;;;;;;;7.75;2.72;;;;;;;;;;4993574;28;20050;-72
2021/10/14 08:57:36;;;;;;;7.25;3.03;;;;;;;;;;4990585;28;20104;-72
2021/10/14 09:00:03;;;;;;;4.68;2.55;;;;;;;;;;4974731;28;20476;-72
2021/10/14 09:02:29;;;;;;;8.13;2.60;;;;;;;;;;4992045;28;20129;-72
2021/10/14 09:04:57;;;;;;;5.78;2.75;;;;;;;;;;4993036;28;20430;-72
2021/10/14 09:07:25;;;;;;;5.60;2.75;;;;;;;;;;4992316;28;20888;-73
2021/10/14 09:09:51;;;;;;;7.38;2.50;;;;;;;;;;4974478;28;20033;-72
2021/10/14 09:12:21;;;;;;;6.78;2.33;;;;;;;;;;4991596;28;20026;-73
2021/10/14 09:14:54;;;;;;;6.00;3.28;;;;;;;;;;4992684;28;20025;-72
2021/10/14 09:17:20;;;;;;;9.88;2.65;;;;;;;;;;4974803;28;20058;-72
2021/10/14 09:19:46;;;;;;;6.78;2.45;;;;;;;;;;4972623;28;20069;-72
2021/10/14 09:22:16;;;;;;;5.70;2.60;;;;;;;;;;4993256;28;20040;-73
2021/10/14 09:24:42;;;;;;;;;;;;;;;;;;4990119;28;20034;-72
2021/10/14 09:27:09;;;;;;;3.42;1.58;;;;;;;;;;4991274;28;20370;-73
2021/10/14 09:29:37;;;;;;;5.68;1.65;;;;;;;;;;4975695;28;20022;-72
2021/10/14 09:32:03;;;;;;;6.38;2.13;;;;;;;;;;4990961;28;20106;-72
2021/10/14 09:34:29;;;;;;;5.20;2.08;;;;;;;;;;4992758;28;20051;-72
2021/10/14 09:36:56;;;;;;;4.20;1.70;;;;;;;;;;4992133;28;20037;-72
2021/10/14 09:39:22;;;;;;;5.30;2.13;;;;;;;;;;4993100;28;20109;-72
2021/10/14 09:41:48;;;;;;;4.00;1.95;;;;;;;;;;4987469;28;20445;-72
2021/10/14 09:44:16;;;;;;;4.00;1.88;;;;;;;;;;4974650;28;20031;-73
2021/10/14 09:46:44;;;;;;;6.50;1.38;;;;;;;;;;4992579;28;20037;-72
2021/10/14 09:49:11;;;;;;;4.40;1.75;;;;;;;;;;4990325;28;20092;-73
2021/10/14 09:51:38;;;;;;;3.03;1.48;;;;;;;;;;4981278;28;20109;-73
2021/10/14 09:54:04;;;;;;;3.47;1.20;;;;;;;;;;4991898;28;20480;-73
2021/10/14 09:56:31;;;;;;;3.42;1.30;;;;;;;;;;4991976;28;20089;-70
2021/10/14 09:58:59;;;;;;;3.17;1.23;;;;;;;;;;4989684;28;20449;-71
2021/10/14 10:01:25;;;;;;;2.10;1.10;;;;;;;;;;4989321;28;20470;-71
2021/10/14 10:03:52;;;;;;;3.60;1.33;;;;;;;;;;4975718;28;20089;-71
2021/10/14 10:06:18;;;;;;;3.15;1.10;;;;;;;;;;4991541;28;20077;-70
2021/10/14 10:08:44;;;;;;;4.07;1.52;;;;;;;;;;4986994;28;20038;-70
2021/10/14 10:11:11;;;;;;;5.88;1.67;;;;;;;;;;4991155;28;20036;-70
2021/10/14 10:13:40;;;;;;;3.90;1.20;;;;;;;;;;4991100;28;20068;-71
2021/10/14 10:16:19;;;;;;;3.05;1.27;;;;;;;;;;4991372;28;20041;-71
2021/10/14 10:18:52;;;;;;;2.50;1.20;;;;;;;;;;4991328;28;20502;-70
2021/10/14 10:21:30;;;;;;;4.78;1.50;;;;;;;;;;4991486;28;20026;-71
2021/10/14 10:24:03;;;;;;;5.65;1.40;;;;;;;;;;4990021;28;20047;-70
2021/10/14 10:26:35;;;;;;;5.25;1.45;;;;;;;;;;4991387;28;20042;-71
2021/10/14 10:29:02;;;;;;;5.35;1.73;;;;;;;;;;4991114;28;20037;-71
2021/10/14 10:31:48;;;;;;;3.42;1.30;;;;;;;;;;4989925;28;20061;-70
2021/10/14 10:34:30;;;;;;;3.72;1.20;;;;;;;;;;4991439;28;20026;-70
2021/10/14 10:37:09;;;;;;;3.00;1.63;;;;;;;;;;4988046;28;20502;-70
2021/10/14 10:39:46;;;;;;;3.30;1.35;;;;;;;;;;4987961;28;20213;-70
2021/10/14 10:42:24;;;;;;;4.63;1.20;;;;;;;;;;4986465;28;20030;-70
2021/10/14 10:44:50;;;;;;;3.85;1.38;;;;;;;;;;4986256;28;20037;-70
2021/10/14 10:47:35;;;;;;;5.53;1.52;;;;;;;;;;4989296;28;20038;-70
2021/10/14 10:50:02;;;;;;;5.38;2.22;;;;;;;;;;4988859;28;20066;-71
2021/10/14 10:52:35;;;;;;;3.97;1.70;;;;;;;;;;4990363;28;20104;-71
2021/10/14 10:55:01;;;;;;;6.07;1.83;;;;;;;;;;4988052;28;20037;-71
2021/10/14 10:57:46;;;;;;;4.90;1.67;;;;;;;;;;4990406;28;20045;-71
2021/10/14 11:00:12;;;;;;;4.38;1.55;;;;;;;;;;4989931;28;20515;-70
2021/10/14 11:02:38;;;;;;;5.72;2.10;;;;;;;;;;4991174;28;20066;-70
2021/10/14 11:05:04;;;;;;;5.70;2.05;;;;;;;;;;4990804;28;20503;-70
2021/10/14 11:07:30;;;;;;;6.78;2.10;;;;;;;;;;4990659;28;20146;-70
2021/10/14 11:09:56;;;;;;;7.18;1.85;;;;;;;;;;4991265;28;20484;-73
2021/10/14 11:12:22;;;;;;;3.92;1.70;;;;;;;;;;4990660;28;20486;-72
2021/10/14 11:14:49;;;;;;;5.10;1.80;;;;;;;;;;4990484;28;20073;-71
2021/10/14 11:17:16;;;;;;;3.88;1.58;;;;;;;;;;4990389;28;20010;-70
2021/10/14 11:19:42;;;;;;;6.80;2.05;;;;;;;;;;4991458;28;20018;-70
2021/10/14 11:22:15;;;;;;;5.90;2.28;;;;;;;;;;4990892;28;20060;-70
2021/10/14 11:24:45;;;;;;;6.32;1.77;;;;;;;;;;4973262;28;20096;-71
2021/10/14 11:27:14;;;;;;;4.95;1.30;;;;;;;;;;4990386;28;20510;-71
2021/10/14 11:29:41;;;;;;;5.00;1.92;;;;;;;;;;4990455;28;20105;-70
2021/10/14 11:32:10;;;;;;;6.22;1.75;;;;;;;;;;4989108;28;20041;-70
2021/10/14 11:34:37;;;;;;;3.45;1.70;;;;;;;;;;4990263;28;20507;-70
2021/10/14 11:37:07;;;;;;;2.90;2.10;;;;;;;;;;4972535;28;20030;-70
2021/10/14 11:39:37;;;;;;;4.57;1.48;;;;;;;;;;4988863;28;20026;-70
2021/10/14 11:42:03;;;;;;;3.45;1.92;;;;;;;;;;4989315;28;20041;-70
2021/10/14 11:44:31;;;;;;;3.53;1.33;;;;;;;;;;4988263;28;20030;-70
2021/10/14 11:46:57;;;;;;;3.60;1.95;;;;;;;;;;4987439;28;20041;-70
2021/10/14 11:49:23;;;;;;;5.53;1.60;;;;;;;;;;4987982;28;20101;-70
2021/10/14 11:51:53;;;;;;;3.17;1.77;;;;;;;;;;4969035;28;20029;-70
2021/10/14 11:54:19;;;;;;;2.95;1.38;;;;;;;;;;4989477;28;20026;-70
2021/10/14 11:56:50;;;;;;;2.78;1.30;;;;;;;;;;4981791;28;20030;-70
2021/10/14 11:59:16;;;;;;;4.63;1.33;;;;;;;;;;4989000;28;20073;-71
2021/10/14 12:01:54;;;;;;;4.97;1.35;;;;;;;;;;4990095;28;20101;-71
2021/10/14 12:04:44;;;;;;;2.58;1.10;;;;;;;;;;4989425;28;20703;-71
2021/10/14 12:07:15;;;;;;;8.98;1.63;;;;;;;;;;4962786;28;20038;-70
2021/10/14 12:09:42;;;;;;;2.42;1.05;;;;;;;;;;4982639;28;20570;-70
2021/10/14 12:12:08;;;;;;;3.38;1.15;;;;;;;;;;4989875;28;20027;-70
2021/10/14 12:14:38;;;;;;;2.50;0.80;;;;;;;;;;4989438;28;20026;-70
2021/10/14 12:17:06;;;;;;;2.78;0.73;;;;;;;;;;4988018;28;20029;-70
2021/10/14 12:19:51;;;;;;;3.70;1.35;;;;;;;;;;4972399;28;20018;-70
2021/10/14 12:22:18;;;;;;;5.80;1.80;;;;;;;;;;4990140;28;20035;-70
2021/10/14 12:24:56;;;;;;;3.10;0.85;;;;;;;;;;4989862;28;20026;-71
2021/10/14 12:27:23;;;;;;;2.45;0.82;;;;;;;;;;4975933;28;20065;-71
2021/10/14 12:29:50;;;;;;;5.25;1.60;;;;;;;;;;4992643;28;20030;-71
2021/10/14 12:32:21;;;;;;;4.70;1.13;;;;;;;;;;4993270;28;20072;-71
2021/10/14 12:34:54;;;;;;;3.67;0.95;;;;;;;;;;4976227;28;20041;-70
2021/10/14 12:37:25;;;;;;;3.03;0.98;;;;;;;;;;4976286;28;20026;-70
2021/10/14 12:40:09;;;;;;;3.67;0.90;;;;;;;;;;5017890;23;20027;-73
2021/10/14 12:42:50;;;;;;;2.67;1.00;;;;;;;;;;4990667;28;20045;-73
2021/10/14 12:46:09;;;;;;;2.20;0.93;;;;;;;;;;4993567;28;20026;-72
2021/10/14 12:51:28;;;;;;;2.05;0.70;;;;;;;;;;4991243;28;20042;-72
2021/10/14 12:53:53;;;;;;;3.28;1.08;;;;;;;;;;4990744;28;20032;-73
2021/10/14 12:56:19;;;;;;;3.08;0.70;;;;;;;;;;4961474;28;20489;-73
2021/10/14 12:58:45;;;;;;;2.83;0.90;;;;;;;;;;4993578;28;20144;-72
2021/10/14 13:01:17;;;;;;;4.53;0.88;;;;;;;;;;4968042;28;20026;-73
2021/10/14 13:03:43;;;;;;;3.25;0.88;;;;;;;;;;4982617;28;20398;-74
2021/10/14 13:06:09;;;;;;;5.60;0.77;;;;;;;;;;4976844;28;20022;-74
2021/10/14 13:08:43;;;;;;;4.55;1.58;;;;;;;;;;4973985;28;20032;-74
2021/10/14 13:11:13;;;;;;;5.32;1.10;;;;;;;;;;4991465;28;20018;-74
2021/10/14 13:13:40;;;;;;;3.80;1.20;;;;;;;;;;4987721;28;20062;-74
2021/10/14 13:16:07;;;;;;;2.97;1.00;;;;;;;;;;4992277;28;20026;-74
2021/10/14 13:18:33;;;;;;;7.57;1.83;;;;;;;;;;4975204;28;20027;-74
2021/10/14 13:21:01;;;;;;;2.92;1.13;;;;;;;;;;4993353;28;20077;-74
2021/10/14 13:23:27;;;;;;;1.98;1.08;;;;;;;;;;4976429;28;20037;-74
2021/10/14 13:25:54;;;;;;;4.28;1.33;;;;;;;;;;4990058;28;20390;-74
2021/10/14 13:28:21;;;;;;;5.32;1.70;;;;;;;;;;4987532;28;20502;-74
2021/10/14 13:30:47;;;;;;;2.22;1.20;;;;;;;;;;4996263;28;20045;-74
2021/10/14 13:33:16;;;;;;;2.80;1.48;;;;;;;;;;4993432;28;20026;-74
2021/10/14 13:35:45;;;;;;;3.00;1.60;;;;;;;;;;4993904;28;20034;-71
2021/10/14 13:38:11;;;;;;;6.30;1.65;;;;;;;;;;4989109;28;20072;-72
2021/10/14 13:40:42;;;;;;;3.78;1.25;;;;;;;;;;4974570;28;20475;-72
2021/10/14 13:43:13;;;;;;;4.07;0.75;;;;;;;;;;4974461;28;20399;-72
2021/10/14 13:45:39;;;;;;;2.70;0.90;;;;;;;;;;4972119;28;20018;-72
2021/10/14 13:48:05;;;;;;;2.83;1.10;;;;;;;;;;4992478;28;20109;-72
2021/10/14 13:50:31;;;;;;;2.08;0.90;;;;;;;;;;4974468;28;20165;-72
2021/10/14 13:52:57;;;;;;;2.60;1.83;;;;;;;;;;4991981;28;20108;-72
2021/10/14 13:55:23;;;;;;;6.38;1.25;;;;;;;;;;4992079;28;20033;-72
2021/10/14 13:57:49;;;;;;;1.90;1.10;;;;;;;;;;4967172;28;20029;-72
2021/10/14 14:00:17;;;;;;;3.80;1.30;;;;;;;;;;4966806;28;20070;-72
2021/10/14 14:02:43;;;;;;;5.15;1.27;;;;;;;;;;4972191;28;20026;-72
2021/10/14 14:05:09;;;;;;;3.00;1.20;;;;;;;;;;4969458;28;20114;-72
2021/10/14 14:07:35;;;;;;;2.42;1.15;;;;;;;;;;4989756;28;20114;-72
2021/10/14 14:10:00;;;;;;;3.65;1.85;;;;;;;;;;4992600;28;20038;-71
2021/10/14 14:12:26;;;;;;;3.20;1.67;;;;;;;;;;4991629;28;20030;-71
2021/10/14 14:14:52;;;;;;;6.15;1.80;;;;;;;;;;4992164;28;20033;-71
2021/10/14 14:17:18;;;;;;;2.92;1.50;;;;;;;;;;4991387;28;20033;-71
2021/10/14 14:19:44;;;;;;;4.97;2.15;;;;;;;;;;4991954;28;20123;-70
2021/10/14 14:22:12;;;;;;;4.25;2.15;;;;;;;;;;4991654;28;20058;-72
2021/10/14 14:24:38;;;;;;;8.90;2.83;;;;;;;;;;4973766;28;20033;-71
2021/10/14 14:27:04;;;;;;;4.97;2.33;;;;;;;;;;4991352;28;20109;-71
2021/10/14 14:29:30;;;;;;;6.60;2.85;;;;;;;;;;4992312;28;20022;-72
2021/10/14 14:31:58;;;;;;;6.32;2.42;;;;;;;;;;4991066;28;20117;-71
2021/10/14 14:34:24;;;;;;;9.70;2.60;;;;;;;;;;4986891;28;20030;-72
2021/10/14 14:36:50;;;;;;;5.05;1.92;;;;;;;;;;4992210;28;20039;-72